sensor_id;sensor_type;location;lat;lon;timestamp;pressure;altitude;pressure_sealevel;temperature;humidity
64053;BME280;50299;49.524;8.536;2023-01-30T00:01:03;101271.09;;;-4.64;82.36
64053;BME280;50299;49.524;8.536;2023-01-30T00:03:29;101264.84;;;-4.32;86.00
64053;BME280;50299;49.524;8.536;2023-01-30T00:05:56;101272.34;;;-4.40;79.67
64053;BME280;50299;49.524;8.536;2023-01-30T00:08:22;101289.13;;;-4.12;81.75
64053;BME280;50299;49.524;8.536;2023-01-30T00:10:49;101296.59;;;-4.07;79.47
64053;BME280;50299;49.524;8.536;2023-01-30T00:13:15;101296.38;;;-3.47;83.15
64053;BME280;50299;49.524;8.536;2023-01-30T00:15:42;101295.69;;;-3.88;77.52
64053;BME280;50299;49.524;8.536;2023-01-30T00:18:09;101305.50;;;-4.00;74.39
64053;BME280;50299;49.524;8.536;2023-01-30T00:20:35;101300.19;;;-3.62;82.27
64053;BME280;50299;49.524;8.536;2023-01-30T00:23:02;101284.28;;;-3.83;79.77
64053;BME280;50299;49.524;8.536;2023-01-30T00:25:28;101272.84;;;-3.92;78.77
64053;BME280;50299;49.524;8.536;2023-01-30T00:28:00;101285.75;;;-4.01;75.48
64053;BME280;50299;49.524;8.536;2023-01-30T00:30:27;101271.81;;;-3.91;75.66
64053;BME280;50299;49.524;8.536;2023-01-30T00:32:56;101267.84;;;-3.82;78.08
64053;BME280;50299;49.524;8.536;2023-01-30T00:35:23;101262.53;;;-4.21;74.16
64053;BME280;50299;49.524;8.536;2023-01-30T00:37:57;101260.47;;;-4.26;77.43
64053;BME280;50299;49.524;8.536;2023-01-30T00:40:28;101275.66;;;-4.38;76.28
64053;BME280;50299;49.524;8.536;2023-01-30T00:42:54;101275.84;;;-4.20;76.01
64053;BME280;50299;49.524;8.536;2023-01-30T00:45:41;101256.72;;;-4.25;76.88
64053;BME280;50299;49.524;8.536;2023-01-30T00:48:27;101257.34;;;-4.23;75.03
64053;BME280;50299;49.524;8.536;2023-01-30T00:50:54;101251.53;;;-4.33;75.64
64053;BME280;50299;49.524;8.536;2023-01-30T00:53:20;101235.56;;;-4.35;77.21
64053;BME280;50299;49.524;8.536;2023-01-30T00:55:49;101224.78;;;-4.41;77.30
64053;BME280;50299;49.524;8.536;2023-01-30T00:58:16;101210.03;;;-4.39;77.02
64053;BME280;50299;49.524;8.536;2023-01-30T01:00:43;101215.84;;;-4.35;76.98
64053;BME280;50299;49.524;8.536;2023-01-30T01:03:09;101212.34;;;-4.49;76.43
64053;BME280;50299;49.524;8.536;2023-01-30T01:05:35;101198.66;;;-4.61;76.72
64053;BME280;50299;49.524;8.536;2023-01-30T01:08:02;101209.03;;;-4.44;75.99
64053;BME280;50299;49.524;8.536;2023-01-30T01:10:29;101196.16;;;-4.62;75.88
64053;BME280;50299;49.524;8.536;2023-01-30T01:12:55;101198.78;;;-4.16;78.90
64053;BME280;50299;49.524;8.536;2023-01-30T01:15:23;101175.50;;;-4.17;77.73
64053;BME280;50299;49.524;8.536;2023-01-30T01:17:49;101176.25;;;-3.96;75.46
64053;BME280;50299;49.524;8.536;2023-01-30T01:20:17;101185.03;;;-4.14;74.83
64053;BME280;50299;49.524;8.536;2023-01-30T01:22:44;101171.56;;;-4.21;76.14
64053;BME280;50299;49.524;8.536;2023-01-30T01:25:11;101179.47;;;-4.33;76.25
64053;BME280;50299;49.524;8.536;2023-01-30T01:27:37;101176.56;;;-4.24;75.82
64053;BME280;50299;49.524;8.536;2023-01-30T01:30:04;101181.66;;;-3.96;75.89
64053;BME280;50299;49.524;8.536;2023-01-30T01:32:31;101188.03;;;-3.84;75.19
64053;BME280;50299;49.524;8.536;2023-01-30T01:34:57;101182.28;;;-3.94;73.17
64053;BME280;50299;49.524;8.536;2023-01-30T01:37:24;101187.53;;;-3.68;76.73
64053;BME280;50299;49.524;8.536;2023-01-30T01:39:50;101182.88;;;-3.92;73.54
64053;BME280;50299;49.524;8.536;2023-01-30T01:42:37;101176.88;;;-3.94;72.91
64053;BME280;50299;49.524;8.536;2023-01-30T01:47:57;101186.75;;;-3.75;75.36
64053;BME280;50299;49.524;8.536;2023-01-30T01:50:52;101177.94;;;-3.57;72.85
64053;BME280;50299;49.524;8.536;2023-01-30T01:53:26;101173.03;;;-3.73;71.66
64053;BME280;50299;49.524;8.536;2023-01-30T01:55:56;101160.47;;;-3.61;74.80
64053;BME280;50299;49.524;8.536;2023-01-30T01:58:44;101159.81;;;-3.57;70.89
64053;BME280;50299;49.524;8.536;2023-01-30T02:01:12;101170.16;;;-3.15;70.05
64053;BME280;50299;49.524;8.536;2023-01-30T02:03:41;101154.63;;;-3.02;74.50
64053;BME280;50299;49.524;8.536;2023-01-30T02:06:11;101163.25;;;-3.11;68.77
64053;BME280;50299;49.524;8.536;2023-01-30T02:08:47;101163.66;;;-2.89;70.63
64053;BME280;50299;49.524;8.536;2023-01-30T02:11:28;101147.91;;;-3.17;71.18
64053;BME280;50299;49.524;8.536;2023-01-30T02:13:55;101142.16;;;-3.28;68.79
64053;BME280;50299;49.524;8.536;2023-01-30T02:16:23;101130.38;;;-4.03;71.01
64053;BME280;50299;49.524;8.536;2023-01-30T02:18:49;101137.03;;;-4.12;70.81
64053;BME280;50299;49.524;8.536;2023-01-30T02:27:26;101123.94;;;-4.09;73.33
64053;BME280;50299;49.524;8.536;2023-01-30T02:33:20;101126.09;;;-4.24;73.86
64053;BME280;50299;49.524;8.536;2023-01-30T02:38:41;101103.81;;;-4.13;75.51
64053;BME280;50299;49.524;8.536;2023-01-30T02:41:20;101096.22;;;-3.91;73.54
64053;BME280;50299;49.524;8.536;2023-01-30T02:46:34;101101.91;;;-4.51;72.23
64053;BME280;50299;49.524;8.536;2023-01-30T02:49:25;101100.25;;;-4.45;73.74
64053;BME280;50299;49.524;8.536;2023-01-30T02:51:55;101104.41;;;-4.62;74.44
64053;BME280;50299;49.524;8.536;2023-01-30T02:54:22;101109.84;;;-4.11;77.15
64053;BME280;50299;49.524;8.536;2023-01-30T02:56:55;101117.53;;;-4.14;72.50
64053;BME280;50299;49.524;8.536;2023-01-30T02:59:35;101108.06;;;-4.30;74.41
64053;BME280;50299;49.524;8.536;2023-01-30T03:08:07;101120.66;;;-4.76;76.45
64053;BME280;50299;49.524;8.536;2023-01-30T03:10:51;101120.09;;;-5.11;75.34
64053;BME280;50299;49.524;8.536;2023-01-30T03:13:51;101119.47;;;-5.13;77.76
64053;BME280;50299;49.524;8.536;2023-01-30T03:18:49;101105.56;;;-5.16;76.89
64053;BME280;50299;49.524;8.536;2023-01-30T03:21:16;101095.59;;;-5.09;76.55
64053;BME280;50299;49.524;8.536;2023-01-30T03:23:46;101096.81;;;-4.98;77.16
64053;BME280;50299;49.524;8.536;2023-01-30T03:26:17;101104.75;;;-5.30;76.41
64053;BME280;50299;49.524;8.536;2023-01-30T03:28:47;101091.66;;;-5.00;76.52
64053;BME280;50299;49.524;8.536;2023-01-30T03:31:14;101087.03;;;-4.86;76.59
64053;BME280;50299;49.524;8.536;2023-01-30T03:33:41;101081.50;;;-5.05;76.22
64053;BME280;50299;49.524;8.536;2023-01-30T03:36:08;101086.81;;;-4.78;77.48
64053;BME280;50299;49.524;8.536;2023-01-30T03:38:36;101094.13;;;-4.92;75.52
64053;BME280;50299;49.524;8.536;2023-01-30T03:41:03;101095.38;;;-5.08;75.62
64053;BME280;50299;49.524;8.536;2023-01-30T03:43:30;101084.22;;;-5.18;76.95
64053;BME280;50299;49.524;8.536;2023-01-30T03:45:56;101087.50;;;-5.03;76.75
64053;BME280;50299;49.524;8.536;2023-01-30T03:48:22;101086.72;;;-5.23;76.27
64053;BME280;50299;49.524;8.536;2023-01-30T03:50:49;101082.53;;;-5.06;78.10
64053;BME280;50299;49.524;8.536;2023-01-30T03:53:15;101087.31;;;-5.01;77.09
64053;BME280;50299;49.524;8.536;2023-01-30T03:55:43;101085.38;;;-4.81;76.35
64053;BME280;50299;49.524;8.536;2023-01-30T03:58:10;101090.31;;;-4.64;75.88
64053;BME280;50299;49.524;8.536;2023-01-30T04:00:36;101067.91;;;-4.65;76.47
64053;BME280;50299;49.524;8.536;2023-01-30T04:03:02;101069.84;;;-4.98;77.21
64053;BME280;50299;49.524;8.536;2023-01-30T04:05:29;101091.66;;;-4.93;77.95
64053;BME280;50299;49.524;8.536;2023-01-30T04:07:56;101077.47;;;-4.76;76.71
64053;BME280;50299;49.524;8.536;2023-01-30T04:10:24;101059.53;;;-4.50;76.48
64053;BME280;50299;49.524;8.536;2023-01-30T04:12:50;101073.91;;;-4.11;75.67
64053;BME280;50299;49.524;8.536;2023-01-30T04:15:17;101074.44;;;-3.96;78.14
64053;BME280;50299;49.524;8.536;2023-01-30T04:17:44;101094.56;;;-3.60;74.45
64053;BME280;50299;49.524;8.536;2023-01-30T04:20:10;101097.28;;;-3.35;73.89
64053;BME280;50299;49.524;8.536;2023-01-30T04:22:37;101088.78;;;-3.64;73.65
64053;BME280;50299;49.524;8.536;2023-01-30T04:25:04;101079.47;;;-4.06;73.27
64053;BME280;50299;49.524;8.536;2023-01-30T04:27:30;101069.66;;;-3.94;74.72
64053;BME280;50299;49.524;8.536;2023-01-30T04:29:57;101073.00;;;-3.98;75.47
64053;BME280;50299;49.524;8.536;2023-01-30T04:32:25;101064.13;;;-4.12;74.17
64053;BME280;50299;49.524;8.536;2023-01-30T04:34:52;101067.81;;;-4.38;76.90
64053;BME280;50299;49.524;8.536;2023-01-30T04:37:18;101069.97;;;-4.67;77.22
64053;BME280;50299;49.524;8.536;2023-01-30T04:39:44;101058.19;;;-4.79;76.68
64053;BME280;50299;49.524;8.536;2023-01-30T04:42:11;101052.09;;;-4.55;77.89
64053;BME280;50299;49.524;8.536;2023-01-30T04:44:37;101055.44;;;-4.66;78.03
64053;BME280;50299;49.524;8.536;2023-01-30T04:47:03;101062.78;;;-4.28;77.86
64053;BME280;50299;49.524;8.536;2023-01-30T04:49:30;101046.38;;;-4.33;77.17
64053;BME280;50299;49.524;8.536;2023-01-30T04:51:56;101036.63;;;-4.34;75.64
64053;BME280;50299;49.524;8.536;2023-01-30T04:54:23;101052.91;;;-4.47;76.50
64053;BME280;50299;49.524;8.536;2023-01-30T04:56:49;101043.25;;;-4.30;75.62
64053;BME280;50299;49.524;8.536;2023-01-30T04:59:15;101030.97;;;-4.19;75.51
64053;BME280;50299;49.524;8.536;2023-01-30T05:01:42;101019.91;;;-4.11;76.48
64053;BME280;50299;49.524;8.536;2023-01-30T05:04:08;101010.31;;;-4.07;76.31
64053;BME280;50299;49.524;8.536;2023-01-30T05:06:35;101009.97;;;-4.17;75.56
64053;BME280;50299;49.524;8.536;2023-01-30T05:09:02;101016.44;;;-4.25;77.26
64053;BME280;50299;49.524;8.536;2023-01-30T05:11:29;101008.59;;;-4.02;77.72
64053;BME280;50299;49.524;8.536;2023-01-30T05:13:55;101006.34;;;-4.36;76.70
64053;BME280;50299;49.524;8.536;2023-01-30T05:16:22;101008.78;;;-4.28;77.24
64053;BME280;50299;49.524;8.536;2023-01-30T05:18:49;101007.19;;;-4.42;77.24
64053;BME280;50299;49.524;8.536;2023-01-30T05:21:21;101015.00;;;-4.28;77.79
64053;BME280;50299;49.524;8.536;2023-01-30T05:23:48;100996.19;;;-4.41;78.70
64053;BME280;50299;49.524;8.536;2023-01-30T05:26:14;100993.84;;;-4.69;78.91
64053;BME280;50299;49.524;8.536;2023-01-30T05:28:41;100990.09;;;-4.68;79.53
64053;BME280;50299;49.524;8.536;2023-01-30T05:31:12;100967.19;;;-4.52;79.04
64053;BME280;50299;49.524;8.536;2023-01-30T05:33:40;100985.00;;;-4.96;80.33
64053;BME280;50299;49.524;8.536;2023-01-30T05:36:07;100982.91;;;-4.87;81.16
64053;BME280;50299;49.524;8.536;2023-01-30T05:38:38;100985.06;;;-5.09;81.00
64053;BME280;50299;49.524;8.536;2023-01-30T05:41:06;100995.75;;;-4.83;81.11
64053;BME280;50299;49.524;8.536;2023-01-30T05:43:33;101004.47;;;-4.87;80.84
64053;BME280;50299;49.524;8.536;2023-01-30T05:46:02;101016.72;;;-4.91;82.11
64053;BME280;50299;49.524;8.536;2023-01-30T05:48:29;101006.13;;;-4.80;83.08
64053;BME280;50299;49.524;8.536;2023-01-30T05:50:57;100990.75;;;-4.72;81.71
64053;BME280;50299;49.524;8.536;2023-01-30T05:53:29;101002.28;;;-4.52;80.48
64053;BME280;50299;49.524;8.536;2023-01-30T05:55:58;101008.47;;;-4.45;80.01
64053;BME280;50299;49.524;8.536;2023-01-30T05:58:26;101013.66;;;-4.50;81.62
64053;BME280;50299;49.524;8.536;2023-01-30T06:00:53;101009.56;;;-4.21;80.95
64053;BME280;50299;49.524;8.536;2023-01-30T06:03:19;101015.72;;;-4.07;79.36
64053;BME280;50299;49.524;8.536;2023-01-30T06:05:46;101021.13;;;-4.07;79.05
64053;BME280;50299;49.524;8.536;2023-01-30T06:08:12;101015.13;;;-3.59;77.96
64053;BME280;50299;49.524;8.536;2023-01-30T06:10:39;101016.06;;;-3.72;77.12
64053;BME280;50299;49.524;8.536;2023-01-30T06:13:05;100994.97;;;-3.38;77.83
64053;BME280;50299;49.524;8.536;2023-01-30T06:15:32;100982.31;;;-3.63;79.39
64053;BME280;50299;49.524;8.536;2023-01-30T06:17:58;100989.06;;;-3.72;76.96
64053;BME280;50299;49.524;8.536;2023-01-30T06:20:24;100978.69;;;-3.50;77.36
64053;BME280;50299;49.524;8.536;2023-01-30T06:22:51;100979.75;;;-3.33;76.70
64053;BME280;50299;49.524;8.536;2023-01-30T06:25:17;100998.44;;;-3.31;76.97
64053;BME280;50299;49.524;8.536;2023-01-30T06:27:45;100990.25;;;-3.43;78.18
64053;BME280;50299;49.524;8.536;2023-01-30T06:30:12;100991.16;;;-3.49;76.33
64053;BME280;50299;49.524;8.536;2023-01-30T06:32:38;100982.13;;;-3.43;78.01
64053;BME280;50299;49.524;8.536;2023-01-30T06:35:05;100980.81;;;-2.97;76.91
64053;BME280;50299;49.524;8.536;2023-01-30T06:37:32;100978.78;;;-2.83;77.17
64053;BME280;50299;49.524;8.536;2023-01-30T06:39:58;100973.81;;;-2.86;75.98
64053;BME280;50299;49.524;8.536;2023-01-30T06:42:24;100971.34;;;-2.88;74.91
64053;BME280;50299;49.524;8.536;2023-01-30T06:44:51;100967.34;;;-2.85;75.20
64053;BME280;50299;49.524;8.536;2023-01-30T06:47:17;100958.38;;;-3.16;76.29
64053;BME280;50299;49.524;8.536;2023-01-30T06:49:43;100956.19;;;-3.07;78.74
64053;BME280;50299;49.524;8.536;2023-01-30T06:52:10;100933.66;;;-3.38;77.24
64053;BME280;50299;49.524;8.536;2023-01-30T06:54:36;100934.16;;;-3.47;78.66
64053;BME280;50299;49.524;8.536;2023-01-30T06:57:03;100921.31;;;-3.52;79.25
64053;BME280;50299;49.524;8.536;2023-01-30T06:59:29;100933.13;;;-3.71;79.09
64053;BME280;50299;49.524;8.536;2023-01-30T07:01:56;100932.50;;;-3.48;80.50
64053;BME280;50299;49.524;8.536;2023-01-30T07:04:22;100921.38;;;-4.02;78.92
64053;BME280;50299;49.524;8.536;2023-01-30T07:06:49;100925.97;;;-4.34;81.90
64053;BME280;50299;49.524;8.536;2023-01-30T07:09:15;100935.97;;;-4.10;83.14
64053;BME280;50299;49.524;8.536;2023-01-30T07:11:41;100939.00;;;-3.99;83.16
64053;BME280;50299;49.524;8.536;2023-01-30T07:14:08;100940.09;;;-4.07;81.95
64053;BME280;50299;49.524;8.536;2023-01-30T07:16:34;100945.66;;;-4.27;83.20
64053;BME280;50299;49.524;8.536;2023-01-30T07:19:01;100938.81;;;-4.61;83.96
64053;BME280;50299;49.524;8.536;2023-01-30T07:21:27;100936.88;;;-4.22;83.03
64053;BME280;50299;49.524;8.536;2023-01-30T07:23:54;100909.88;;;-4.22;83.18
64053;BME280;50299;49.524;8.536;2023-01-30T07:26:20;100897.41;;;-4.48;84.50
64053;BME280;50299;49.524;8.536;2023-01-30T07:28:47;100890.88;;;-4.34;84.01
64053;BME280;50299;49.524;8.536;2023-01-30T07:31:13;100894.16;;;-4.57;83.86
64053;BME280;50299;49.524;8.536;2023-01-30T07:33:40;100915.38;;;-4.67;84.72
64053;BME280;50299;49.524;8.536;2023-01-30T07:36:06;100914.78;;;-4.69;85.70
64053;BME280;50299;49.524;8.536;2023-01-30T07:38:32;100931.53;;;-4.61;86.06
64053;BME280;50299;49.524;8.536;2023-01-30T07:40:59;100943.50;;;-4.88;86.43
64053;BME280;50299;49.524;8.536;2023-01-30T07:43:25;100947.00;;;-4.81;86.57
64053;BME280;50299;49.524;8.536;2023-01-30T07:45:51;100954.34;;;-4.57;87.10
64053;BME280;50299;49.524;8.536;2023-01-30T07:48:19;100929.22;;;-4.26;85.40
64053;BME280;50299;49.524;8.536;2023-01-30T07:50:46;100911.06;;;-4.12;85.99
64053;BME280;50299;49.524;8.536;2023-01-30T07:53:14;100935.09;;;-4.04;82.91
64053;BME280;50299;49.524;8.536;2023-01-30T07:55:44;100934.44;;;-3.99;83.67
64053;BME280;50299;49.524;8.536;2023-01-30T07:58:14;100921.47;;;-4.15;82.37
64053;BME280;50299;49.524;8.536;2023-01-30T08:00:41;100913.91;;;-3.82;82.49
64053;BME280;50299;49.524;8.536;2023-01-30T08:03:12;100928.00;;;-3.80;81.59
64053;BME280;50299;49.524;8.536;2023-01-30T08:05:39;100932.19;;;-3.59;81.54
64053;BME280;50299;49.524;8.536;2023-01-30T08:08:05;100949.84;;;-3.81;81.68
64053;BME280;50299;49.524;8.536;2023-01-30T08:10:32;100960.00;;;-3.77;80.93
64053;BME280;50299;49.524;8.536;2023-01-30T08:12:58;100961.97;;;-3.65;83.05
64053;BME280;50299;49.524;8.536;2023-01-30T08:15:24;100965.25;;;-3.38;81.89
64053;BME280;50299;49.524;8.536;2023-01-30T08:17:55;100958.59;;;-3.61;80.47
64053;BME280;50299;49.524;8.536;2023-01-30T08:20:22;100941.03;;;-3.70;82.47
64053;BME280;50299;49.524;8.536;2023-01-30T08:22:49;100952.78;;;-3.83;81.22
64053;BME280;50299;49.524;8.536;2023-01-30T08:25:15;100944.13;;;-3.91;81.86
64053;BME280;50299;49.524;8.536;2023-01-30T08:27:42;100948.59;;;-4.35;82.91
64053;BME280;50299;49.524;8.536;2023-01-30T08:30:10;100941.47;;;-3.98;82.88
64053;BME280;50299;49.524;8.536;2023-01-30T08:32:37;100929.94;;;-3.62;83.59
64053;BME280;50299;49.524;8.536;2023-01-30T08:35:03;100925.22;;;-3.48;81.97
64053;BME280;50299;49.524;8.536;2023-01-30T08:37:30;100923.50;;;-3.24;81.84
64053;BME280;50299;49.524;8.536;2023-01-30T08:39:56;100932.03;;;-3.64;80.08
64053;BME280;50299;49.524;8.536;2023-01-30T08:42:25;100935.25;;;-3.55;81.56
64053;BME280;50299;49.524;8.536;2023-01-30T08:44:52;100942.38;;;-3.17;80.14
64053;BME280;50299;49.524;8.536;2023-01-30T08:47:18;100925.38;;;-3.06;81.35
64053;BME280;50299;49.524;8.536;2023-01-30T08:49:44;100939.72;;;-2.87;78.87
64053;BME280;50299;49.524;8.536;2023-01-30T08:52:11;100952.50;;;-2.94;79.67
64053;BME280;50299;49.524;8.536;2023-01-30T08:54:37;100949.16;;;-2.78;79.02
64053;BME280;50299;49.524;8.536;2023-01-30T08:57:04;100951.56;;;-2.70;80.30
64053;BME280;50299;49.524;8.536;2023-01-30T08:59:30;100950.69;;;-2.52;78.70
64053;BME280;50299;49.524;8.536;2023-01-30T09:01:56;100948.81;;;-2.52;79.20
64053;BME280;50299;49.524;8.536;2023-01-30T09:04:24;100951.53;;;-2.52;78.71
64053;BME280;50299;49.524;8.536;2023-01-30T09:06:51;100942.00;;;-2.00;76.91
64053;BME280;50299;49.524;8.536;2023-01-30T09:09:18;100934.47;;;-2.10;74.63
64053;BME280;50299;49.524;8.536;2023-01-30T09:11:44;100938.22;;;-1.99;75.03
64053;BME280;50299;49.524;8.536;2023-01-30T09:14:14;100923.63;;;-2.10;76.07
64053;BME280;50299;49.524;8.536;2023-01-30T09:16:46;100909.75;;;-2.02;76.59
64053;BME280;50299;49.524;8.536;2023-01-30T09:19:13;100910.56;;;-1.90;75.98
64053;BME280;50299;49.524;8.536;2023-01-30T09:21:41;100911.03;;;-1.81;75.23
64053;BME280;50299;49.524;8.536;2023-01-30T09:24:08;100911.38;;;-1.54;78.44
64053;BME280;50299;49.524;8.536;2023-01-30T09:26:34;100909.63;;;-0.85;79.40
64053;BME280;50299;49.524;8.536;2023-01-30T09:29:00;100893.63;;;-0.69;75.05
64053;BME280;50299;49.524;8.536;2023-01-30T09:31:27;100893.84;;;-0.71;73.04
64053;BME280;50299;49.524;8.536;2023-01-30T09:33:53;100903.94;;;-0.55;72.97
64053;BME280;50299;49.524;8.536;2023-01-30T09:36:20;100904.63;;;-0.47;75.54
64053;BME280;50299;49.524;8.536;2023-01-30T09:38:46;100905.66;;;-0.65;71.73
64053;BME280;50299;49.524;8.536;2023-01-30T09:41:28;100912.38;;;-0.68;71.55
64053;BME280;50299;49.524;8.536;2023-01-30T09:44:07;100915.25;;;-0.74;73.56
64053;BME280;50299;49.524;8.536;2023-01-30T09:49:38;100902.69;;;-0.64;70.68
64053;BME280;50299;49.524;8.536;2023-01-30T09:54:46;100908.03;;;-0.69;71.71
64053;BME280;50299;49.524;8.536;2023-01-30T09:57:17;100910.66;;;-0.74;71.30
64053;BME280;50299;49.524;8.536;2023-01-30T10:02:52;100909.47;;;-0.49;72.97
64053;BME280;50299;49.524;8.536;2023-01-30T10:05:33;100911.91;;;-1.17;73.00
64053;BME280;50299;49.524;8.536;2023-01-30T10:11:19;100919.94;;;-0.41;72.08
64053;BME280;50299;49.524;8.536;2023-01-30T10:16:37;100897.47;;;-1.46;72.64
64053;BME280;50299;49.524;8.536;2023-01-30T10:19:19;100888.59;;;-1.30;73.65
64053;BME280;50299;49.524;8.536;2023-01-30T10:22:43;100871.81;;;-1.03;72.16
64053;BME280;50299;49.524;8.536;2023-01-30T10:25:40;100877.16;;;-0.91;71.66
64053;BME280;50299;49.524;8.536;2023-01-30T10:28:21;100887.88;;;-1.37;71.24
64053;BME280;50299;49.524;8.536;2023-01-30T10:30:54;100896.00;;;-1.25;72.47
64053;BME280;50299;49.524;8.536;2023-01-30T10:33:27;100894.88;;;-1.53;71.62
64053;BME280;50299;49.524;8.536;2023-01-30T10:36:08;100903.47;;;-1.32;72.71
64053;BME280;50299;49.524;8.536;2023-01-30T10:41:30;100900.25;;;-1.17;73.13
64053;BME280;50299;49.524;8.536;2023-01-30T10:49:05;100891.25;;;-0.94;70.29
64053;BME280;50299;49.524;8.536;2023-01-30T10:54:45;100878.97;;;-1.09;70.41
64053;BME280;50299;49.524;8.536;2023-01-30T11:03:27;100886.84;;;-0.21;70.77
64053;BME280;50299;49.524;8.536;2023-01-30T11:06:05;100880.38;;;-0.04;71.35
64053;BME280;50299;49.524;8.536;2023-01-30T11:08:34;100887.50;;;-0.31;68.88
64053;BME280;50299;49.524;8.536;2023-01-30T11:11:21;100887.84;;;-0.44;70.17
64053;BME280;50299;49.524;8.536;2023-01-30T11:13:48;100880.78;;;-0.12;69.67
64053;BME280;50299;49.524;8.536;2023-01-30T11:16:15;100875.41;;;-0.86;69.96
64053;BME280;50299;49.524;8.536;2023-01-30T11:18:46;100877.53;;;-0.25;69.56
64053;BME280;50299;49.524;8.536;2023-01-30T11:21:33;100891.13;;;-0.99;71.02
64053;BME280;50299;49.524;8.536;2023-01-30T11:24:15;100867.66;;;-0.94;70.85
64053;BME280;50299;49.524;8.536;2023-01-30T11:26:43;100857.91;;;-1.18;72.30
64053;BME280;50299;49.524;8.536;2023-01-30T11:29:31;100858.16;;;-0.91;73.59
64053;BME280;50299;49.524;8.536;2023-01-30T11:32:10;100869.19;;;-1.10;72.46
64053;BME280;50299;49.524;8.536;2023-01-30T11:34:37;100866.28;;;-1.20;73.27
64053;BME280;50299;49.524;8.536;2023-01-30T11:37:35;100873.28;;;-0.95;72.95
64053;BME280;50299;49.524;8.536;2023-01-30T11:40:26;100879.88;;;-0.91;71.10
64053;BME280;50299;49.524;8.536;2023-01-30T11:43:04;100861.13;;;-0.93;72.71
64053;BME280;50299;49.524;8.536;2023-01-30T11:45:41;100852.25;;;-0.88;71.78
64053;BME280;50299;49.524;8.536;2023-01-30T11:48:15;100844.38;;;-0.90;72.08
64053;BME280;50299;49.524;8.536;2023-01-30T11:51:05;100840.88;;;-1.02;72.96
64053;BME280;50299;49.524;8.536;2023-01-30T11:53:40;100837.16;;;-1.24;73.39
64053;BME280;50299;49.524;8.536;2023-01-30T11:56:28;100856.22;;;-1.08;73.24
64053;BME280;50299;49.524;8.536;2023-01-30T11:58:59;100846.66;;;-0.98;73.36
64053;BME280;50299;49.524;8.536;2023-01-30T12:01:36;100842.88;;;-1.09;73.50
64053;BME280;50299;49.524;8.536;2023-01-30T12:04:06;100839.63;;;-1.23;73.91
64053;BME280;50299;49.524;8.536;2023-01-30T12:06:36;100861.53;;;-1.01;73.65
64053;BME280;50299;49.524;8.536;2023-01-30T12:09:03;100851.41;;;-1.06;73.75
64053;BME280;50299;49.524;8.536;2023-01-30T12:19:44;100857.00;;;-0.67;71.26
64053;BME280;50299;49.524;8.536;2023-01-30T12:22:24;100860.16;;;-0.58;71.08
64053;BME280;50299;49.524;8.536;2023-01-30T12:24:57;100856.75;;;-0.82;72.15
64053;BME280;50299;49.524;8.536;2023-01-30T12:27:36;100855.25;;;-0.44;72.53
64053;BME280;50299;49.524;8.536;2023-01-30T12:30:23;100856.06;;;-0.27;70.08
64053;BME280;50299;49.524;8.536;2023-01-30T12:32:57;100875.16;;;-0.39;71.36
64053;BME280;50299;49.524;8.536;2023-01-30T12:35:55;100873.09;;;-0.32;70.78
64053;BME280;50299;49.524;8.536;2023-01-30T12:44:56;100868.09;;;-0.06;70.41
64053;BME280;50299;49.524;8.536;2023-01-30T12:55:46;100886.63;;;-0.20;70.43
64053;BME280;50299;49.524;8.536;2023-01-30T13:00:57;100868.50;;;-0.31;71.74
64053;BME280;50299;49.524;8.536;2023-01-30T13:03:58;100865.03;;;-0.10;71.42
64053;BME280;50299;49.524;8.536;2023-01-30T13:06:56;100870.88;;;0.16;70.63
64053;BME280;50299;49.524;8.536;2023-01-30T13:12:41;100886.47;;;0.04;69.82
64053;BME280;50299;49.524;8.536;2023-01-30T13:20:59;100874.94;;;-0.37;73.20
64053;BME280;50299;49.524;8.536;2023-01-30T13:26:11;100871.31;;;0.08;71.34
64053;BME280;50299;49.524;8.536;2023-01-30T13:28:44;100870.38;;;0.19;70.56
64053;BME280;50299;49.524;8.536;2023-01-30T13:31:14;100876.31;;;-0.01;70.55
64053;BME280;50299;49.524;8.536;2023-01-30T13:33:46;100879.13;;;0.04;71.42
64053;BME280;50299;49.524;8.536;2023-01-30T13:36:23;100881.16;;;0.14;70.71
64053;BME280;50299;49.524;8.536;2023-01-30T13:39:03;100884.31;;;0.06;70.05
64053;BME280;50299;49.524;8.536;2023-01-30T13:41:35;100887.84;;;-0.11;70.32
64053;BME280;50299;49.524;8.536;2023-01-30T13:44:49;100878.00;;;-0.17;71.38
64053;BME280;50299;49.524;8.536;2023-01-30T13:50:29;100886.28;;;-0.23;71.31
64053;BME280;50299;49.524;8.536;2023-01-30T13:55:55;100884.63;;;-0.41;72.39
64053;BME280;50299;49.524;8.536;2023-01-30T13:58:35;100895.06;;;0.34;70.99
64053;BME280;50299;49.524;8.536;2023-01-30T14:01:11;100886.25;;;0.27;69.93
64053;BME280;50299;49.524;8.536;2023-01-30T14:03:39;100881.84;;;0.21;70.82
64053;BME280;50299;49.524;8.536;2023-01-30T14:06:24;100881.59;;;-0.11;70.99
64053;BME280;50299;49.524;8.536;2023-01-30T14:08:53;100878.13;;;0.10;71.63
64053;BME280;50299;49.524;8.536;2023-01-30T14:11:34;100875.25;;;0.00;71.18
64053;BME280;50299;49.524;8.536;2023-01-30T14:14:24;100871.38;;;0.13;70.71
64053;BME280;50299;49.524;8.536;2023-01-30T14:17:14;100878.41;;;-0.25;72.26
64053;BME280;50299;49.524;8.536;2023-01-30T14:22:53;100887.97;;;0.50;75.19
64053;BME280;50299;49.524;8.536;2023-01-30T14:30:35;100893.19;;;0.74;70.69
64053;BME280;50299;49.524;8.536;2023-01-30T14:38:29;100883.25;;;-0.10;72.43
64053;BME280;50299;49.524;8.536;2023-01-30T14:43:37;100885.94;;;-0.27;71.76
64053;BME280;50299;49.524;8.536;2023-01-30T14:51:33;100890.91;;;-0.07;71.99
64053;BME280;50299;49.524;8.536;2023-01-30T14:57:02;100878.63;;;0.07;71.06
64053;BME280;50299;49.524;8.536;2023-01-30T14:59:35;100892.19;;;0.24;70.62
64053;BME280;50299;49.524;8.536;2023-01-30T15:07:19;100895.06;;;0.34;69.58
64053;BME280;50299;49.524;8.536;2023-01-30T15:16:26;100927.16;;;0.71;69.17
64053;BME280;50299;49.524;8.536;2023-01-30T15:28:03;100949.72;;;0.50;68.89
64053;BME280;50299;49.524;8.536;2023-01-30T15:33:13;100959.53;;;0.17;71.87
64053;BME280;50299;49.524;8.536;2023-01-30T15:35:48;100960.41;;;0.39;70.16
64053;BME280;50299;49.524;8.536;2023-01-30T15:38:29;100968.09;;;0.26;73.19